Time;durP1;ratioP1;P1;durP2;ratioP2;P2;SDS_P1;SDS_P2;PMS_P1;PMS_P2;Temp;Humidity;BMP_temperature;BMP_pressure;BME280_temperature;BME280_humidity;BME280_pressure;Samples;Min_cycle;Max_cycle;Signal;HPM_P1;HPM_P2
2023/04/12 00:00:09;;;;;;;5.27;3.40;;;4.70;99.90;;;-141.84;75.79;19297.66;5050837;28;20231;-75
2023/04/12 00:02:39;;;;;;;3.70;3.30;;;4.80;99.90;;;-141.84;75.34;19299.69;5051327;28;20607;-79
2023/04/12 00:05:10;;;;;;;6.63;3.30;;;4.80;99.90;;;-141.84;75.63;19315.94;5051181;28;20239;-76
2023/04/12 00:07:38;;;;;;;4.70;2.90;;;4.80;99.90;;;-141.84;75.74;19285.47;5066972;28;20570;-77
2023/04/12 00:10:09;;;;;;;5.60;3.10;;;4.70;99.90;;;-141.84;76.09;19281.41;5071069;28;20748;-77
2023/04/12 00:12:37;;;;;;;5.17;3.33;;;4.70;99.90;;;-141.84;76.24;19287.50;5071005;28;20229;-78
2023/04/12 00:15:06;;;;;;;4.30;3.30;;;4.70;99.90;;;-141.84;76.49;19281.41;5070632;28;20729;-78
2023/04/12 00:17:35;;;;;;;4.00;3.47;;;4.70;99.90;;;-141.84;76.34;19273.28;5070957;28;20304;-75
2023/04/12 00:20:06;;;;;;;3.87;3.17;;;4.70;99.90;;;-141.84;76.15;19305.78;5070807;28;20814;-77
2023/04/12 00:22:35;;;;;;;3.90;3.30;;;4.70;99.90;;;-141.84;75.46;19297.66;5073914;28;20366;-75
2023/04/12 00:25:04;;;;;;;5.27;3.00;;;4.70;99.90;;;-141.84;75.10;19283.44;5071732;28;20235;-76
2023/04/12 00:27:32;;;;;;;3.93;3.53;;;4.70;99.90;;;-141.84;75.15;19242.78;5070550;28;20227;-77
2023/04/12 00:30:01;;;;;;;5.07;3.37;;;4.80;99.90;;;-141.84;75.90;19277.34;5070310;28;20745;-76
2023/04/12 00:32:29;;;;;;;4.13;3.07;;;4.70;99.90;;;-141.84;75.85;19285.47;5070398;28;20254;-74
2023/04/12 00:34:58;;;;;;;4.57;3.30;;;4.70;99.90;;;-141.84;76.02;19273.28;5071314;28;20234;-75
2023/04/12 00:37:26;;;;;;;5.33;3.20;;;4.60;99.90;;;-141.84;76.23;19269.22;5073474;28;20298;-78
2023/04/12 00:39:55;;;;;;;3.60;3.30;;;4.60;99.90;;;-141.84;76.19;19265.13;5089887;28;20220;-76
2023/04/12 00:42:23;;;;;;;7.10;3.80;;;4.60;99.90;;;-141.84;76.40;19261.06;5085489;28;20226;-73
2023/04/12 00:44:52;;;;;;;4.10;3.60;;;4.50;99.90;;;-141.84;76.70;19218.41;5072058;28;20262;-75
2023/04/12 00:47:20;;;;;;;4.50;3.47;;;4.50;99.90;;;-141.84;76.83;19238.72;5072626;28;20230;-76
2023/04/12 00:49:48;;;;;;;4.93;3.30;;;4.40;99.90;;;-141.84;76.54;19246.84;5072369;28;20358;-77
2023/04/12 00:52:17;;;;;;;5.30;3.60;;;4.40;99.90;;;-141.84;76.97;19263.09;5073076;28;20207;-77
2023/04/12 00:54:45;;;;;;;4.93;3.33;;;4.30;99.90;;;-141.84;77.11;19240.75;5072015;28;20229;-74
2023/04/12 00:57:15;;;;;;;4.07;3.53;;;4.30;99.90;;;-141.84;77.00;19244.81;5072074;28;20235;-75
2023/04/12 00:59:43;;;;;;;4.47;3.67;;;4.30;99.90;;;-141.84;76.37;19236.69;5071864;28;20233;-76
2023/04/12 01:02:11;;;;;;;5.20;3.80;;;4.40;99.90;;;-141.84;76.17;19277.34;5071938;28;20232;-75
2023/04/12 01:04:42;;;;;;;5.70;3.60;;;4.40;99.90;;;-141.84;76.03;19279.38;5072184;28;20550;-76
2023/04/12 01:07:23;;;;;;;4.87;3.40;;;4.40;99.90;;;-141.84;76.34;19244.81;5072306;28;20223;-77
2023/04/12 01:10:01;;;;;;;8.13;3.80;;;4.40;99.90;;;-141.84;76.39;19265.13;5071534;28;20635;-76
2023/04/12 01:12:47;;;;;;;3.97;3.57;;;4.40;99.90;;;-141.84;76.58;19232.63;5071789;28;20230;-75
2023/04/12 01:15:17;;;;;;;4.97;3.43;;;4.30;99.90;;;-141.84;76.83;19273.28;5071590;28;20222;-74
2023/04/12 01:18:01;;;;;;;6.97;3.67;;;4.30;99.90;;;-141.84;76.42;19254.97;5072396;28;20234;-77
2023/04/12 01:20:38;;;;;;;4.80;3.97;;;4.30;99.90;;;-141.84;75.52;19285.47;5072785;28;20605;-75
2023/04/12 01:23:40;;;;;;;4.30;3.73;;;4.30;99.90;;;-141.84;75.84;19277.34;5072158;28;20231;-75
2023/04/12 01:26:22;;;;;;;3.77;3.40;;;4.30;99.90;;;-141.84;75.47;19257.00;5071779;28;20395;-76
2023/04/12 01:28:55;;;;;;;4.00;3.57;;;4.40;99.90;;;-141.84;76.06;19232.63;5071322;28;20287;-75
2023/04/12 01:31:26;;;;;;;6.03;3.90;;;4.30;99.90;;;-141.84;76.43;19257.00;5072551;28;20546;-76
2023/04/12 01:33:56;;;;;;;4.90;4.07;;;4.20;99.90;;;-141.84;75.72;19263.09;5073038;28;20600;-76
2023/04/12 01:36:28;;;;;;;5.27;3.40;;;4.20;99.90;;;-141.84;75.42;19248.88;5072219;28;20225;-75
2023/04/12 01:38:57;;;;;;;3.53;3.13;;;4.30;99.90;;;-141.84;75.67;19259.03;5071114;28;20717;-76
2023/04/12 01:41:26;;;;;;;4.10;3.40;;;4.20;99.90;;;-141.84;76.13;19200.13;5071251;28;20252;-77
2023/04/12 01:43:55;;;;;;;6.53;3.73;;;4.20;99.90;;;-141.84;76.58;19234.66;5071255;28;20598;-74
2023/04/12 01:46:24;;;;;;;6.23;3.90;;;4.20;99.90;;;-141.84;75.91;19230.59;5071675;28;20320;-74
2023/04/12 01:48:54;;;;;;;4.90;3.20;;;4.20;99.90;;;-141.84;75.44;19248.88;5071571;28;20513;-74
2023/04/12 01:51:38;;;;;;;5.50;3.90;;;4.20;99.90;;;-141.84;75.79;19220.44;5070995;28;20640;-74
2023/04/12 01:54:11;;;;;;;4.77;3.63;;;4.20;99.90;;;-141.84;75.84;19210.28;5071004;28;20221;-74
2023/04/12 01:56:44;;;;;;;4.30;3.30;;;4.10;99.90;;;-141.84;75.64;19244.81;5071085;28;20233;-75
2023/04/12 01:59:16;;;;;;;3.80;3.40;;;4.20;99.90;;;-141.84;75.92;19224.50;5070738;28;20225;-75
2023/04/12 02:01:46;;;;;;;3.70;3.20;;;4.20;99.90;;;-141.84;76.20;19257.00;5071050;28;20528;-76
2023/04/12 02:04:17;;;;;;;4.00;3.30;;;4.10;99.90;;;-141.84;75.94;19230.59;5071433;28;20257;-77
2023/04/12 02:06:47;;;;;;;5.67;3.33;;;4.10;99.90;;;-141.84;76.48;19216.38;5070604;28;20266;-75
2023/04/12 02:09:15;;;;;;;5.17;3.67;;;4.10;99.90;;;-141.84;76.49;19228.56;5070437;28;20237;-76
2023/04/12 02:11:48;;;;;;;5.13;3.17;;;4.10;99.90;;;-141.84;76.19;19244.81;5070609;28;20227;-74
2023/04/12 02:14:18;;;;;;;4.00;3.30;;;4.10;99.90;;;-141.84;76.06;19214.34;5070734;28;20225;-73
2023/04/12 02:16:46;;;;;;;3.97;3.27;;;4.10;99.90;;;-141.84;75.93;19234.66;5070934;28;20199;-74
2023/04/12 02:19:15;;;;;;;3.73;3.23;;;4.10;99.90;;;-141.84;75.58;19210.28;5071334;28;20288;-73
2023/04/12 02:21:45;;;;;;;4.80;3.10;;;4.10;99.90;;;-141.84;75.39;19248.88;5071255;28;20228;-75
2023/04/12 02:24:14;;;;;;;3.57;2.80;;;4.10;99.90;;;-141.84;75.05;19228.56;5070228;28;20724;-73
2023/04/12 02:26:42;;;;;;;5.53;3.03;;;4.10;99.90;;;-141.84;74.30;19232.63;5073008;28;20246;-74
2023/04/12 02:29:11;;;;;;;3.23;2.93;;;4.20;99.90;;;-141.84;74.36;19246.84;5061310;28;20241;-74
2023/04/12 02:31:41;;;;;;;2.97;2.67;;;4.30;99.90;;;-141.84;74.26;19212.31;5067012;28;20199;-74
2023/04/12 02:34:09;;;;;;;3.90;2.50;;;4.30;99.90;;;-141.84;73.50;19281.41;5071200;28;20204;-76
2023/04/12 02:36:37;;;;;;;3.63;2.63;;;4.30;99.90;;;-141.84;73.08;19265.13;5073273;28;20769;-74
2023/04/12 02:39:06;;;;;;;4.10;2.57;;;4.30;99.90;;;-141.84;73.34;19305.78;5075025;28;20231;-74
2023/04/12 02:41:34;;;;;;;3.70;2.30;;;4.40;99.90;;;-141.84;72.85;19275.31;5073421;28;20258;-76
2023/04/12 02:44:02;;;;;;;3.13;2.50;;;4.40;99.90;;;-141.84;72.87;19287.50;5070203;28;20362;-75
2023/04/12 02:46:31;;;;;;;4.70;2.70;;;4.40;99.90;;;-141.84;72.67;19267.16;5073700;28;20227;-75
2023/04/12 02:49:00;;;;;;;4.17;2.70;;;4.50;99.90;;;-141.84;72.36;19240.75;5071064;28;20213;-74
2023/04/12 02:51:28;;;;;;;5.23;2.43;;;4.50;99.90;;;-141.84;72.44;19265.13;5070502;28;20229;-74
2023/04/12 02:53:57;;;;;;;5.17;2.30;;;4.50;99.90;;;-141.84;71.64;19271.25;5064466;28;20230;-74
2023/04/12 02:56:25;;;;;;;2.50;2.27;;;4.50;99.90;;;-141.84;71.48;19299.69;5050731;28;20253;-75
2023/04/12 02:58:53;;;;;;;3.23;2.30;;;4.50;99.90;;;-141.84;71.40;19279.38;5049876;28;20227;-75
2023/04/12 03:01:21;;;;;;;3.43;2.23;;;4.50;99.90;;;-141.84;71.89;19269.22;5050509;28;20212;-75
2023/04/12 03:03:49;;;;;;;5.43;3.10;;;4.50;99.90;;;-141.84;71.73;19281.41;5050121;28;20277;-77
2023/04/12 03:06:19;;;;;;;4.10;2.63;;;4.50;99.90;;;-141.84;72.25;19240.75;5059483;28;20721;-74
2023/04/12 03:08:47;;;;;;;4.80;3.17;;;4.50;99.90;;;-141.84;72.14;19271.25;5070195;28;20231;-77
2023/04/12 03:11:15;;;;;;;3.30;2.90;;;4.50;99.90;;;-141.84;71.97;19254.97;5070254;28;20238;-75
2023/04/12 03:13:44;;;;;;;5.13;3.30;;;4.40;99.90;;;-141.84;71.82;19246.84;5070101;28;20203;-75
2023/04/12 03:16:23;;;;;;;4.90;3.07;;;4.40;99.90;;;-141.84;71.71;19246.84;5070357;28;20708;-76
2023/04/12 03:18:51;;;;;;;3.57;2.80;;;4.40;99.90;;;-141.84;71.73;19271.25;5070111;28;20234;-76
2023/04/12 03:21:21;;;;;;;4.00;3.30;;;4.40;99.90;;;-141.84;71.91;19246.84;5070866;28;20222;-74
2023/04/12 03:23:49;;;;;;;2.70;2.50;;;4.30;99.90;;;-141.84;71.64;19275.31;5073659;28;20724;-75
2023/04/12 03:26:19;;;;;;;4.20;3.00;;;4.40;99.90;;;-141.84;71.90;19281.41;5073888;28;20246;-73
2023/04/12 03:28:47;;;;;;;5.63;3.10;;;4.30;99.90;;;-141.84;71.62;19259.03;5076048;28;20254;-76
2023/04/12 03:31:20;;;;;;;3.20;2.90;;;4.30;99.90;;;-141.84;71.55;19261.06;5074192;28;20212;-75
2023/04/12 03:33:48;;;;;;;3.63;3.13;;;4.30;99.90;;;-141.84;71.31;19259.03;5073503;28;20666;-76
2023/04/12 03:36:17;;;;;;;3.30;2.80;;;4.30;99.90;;;-141.84;70.66;19281.41;5073535;28;20327;-74
2023/04/12 03:38:46;;;;;;;3.60;2.90;;;4.30;99.90;;;-141.84;70.86;19257.00;5073494;28;20229;-75
2023/04/12 03:41:15;;;;;;;4.83;3.10;;;4.30;99.90;;;-141.84;71.30;19269.22;5073505;28;20233;-76
2023/04/12 03:43:45;;;;;;;3.57;2.90;;;4.30;99.90;;;-141.84;71.20;19232.63;5072963;28;20205;-75
2023/04/12 03:46:15;;;;;;;4.30;3.03;;;4.20;99.90;;;-141.84;71.04;19232.63;5074073;28;20289;-74
2023/04/12 03:48:43;;;;;;;4.17;3.23;;;4.20;99.90;;;-141.84;71.36;19248.88;5073505;28;20875;-78
2023/04/12 03:51:12;;;;;;;5.13;3.03;;;4.20;99.90;;;-141.84;71.24;19220.44;5073781;28;20234;-76
2023/04/12 03:53:40;;;;;;;5.20;3.33;;;4.20;99.90;;;-141.84;71.24;19238.72;5073281;28;20692;-79
2023/04/12 03:56:11;;;;;;;5.40;3.20;;;4.20;99.90;;;-141.84;71.32;19244.81;5073495;28;20229;-76
2023/04/12 03:58:39;;;;;;;3.30;2.77;;;4.20;99.90;;;-141.84;71.73;19240.75;5072824;28;20203;-75
2023/04/12 04:01:08;;;;;;;4.17;3.30;;;4.20;99.90;;;-141.84;71.22;19236.69;5073822;28;20211;-74
2023/04/12 04:03:36;;;;;;;3.40;2.93;;;4.20;99.90;;;-141.84;71.09;19283.44;5073178;28;20231;-76
2023/04/12 04:06:05;;;;;;;4.27;3.10;;;4.20;99.90;;;-141.84;70.53;19289.53;5074539;28;20227;-74
2023/04/12 04:08:34;;;;;;;7.03;3.40;;;4.20;99.90;;;-141.84;70.90;19267.16;5076023;28;20722;-77
2023/04/12 04:11:02;;;;;;;4.23;3.10;;;4.20;99.90;;;-141.84;71.43;19246.84;5075043;28;20236;-75
2023/04/12 04:13:32;;;;;;;3.83;3.00;;;4.20;99.90;;;-141.84;71.22;19230.59;5074239;28;20204;-76
2023/04/12 04:16:04;;;;;;;4.83;3.63;;;4.20;99.90;;;-141.84;71.45;19232.63;5074401;28;20221;-75
2023/04/12 04:18:34;;;;;;;4.97;3.00;;;4.20;99.90;;;-141.84;71.55;19271.25;5074381;28;20249;-75
2023/04/12 04:21:02;;;;;;;5.70;3.40;;;4.20;99.90;;;-141.84;71.19;19269.22;5075279;28;20260;-76
2023/04/12 04:23:37;;;;;;;4.17;2.90;;;4.20;99.90;;;-141.84;70.92;19240.75;5079818;28;20227;-77
2023/04/12 04:26:09;;;;;;;7.33;2.93;;;4.30;99.90;;;-141.84;70.33;19269.22;5094572;28;20229;-75
2023/04/12 04:28:41;;;;;;;3.63;3.30;;;4.40;99.90;;;-141.84;70.80;19263.09;5080879;28;20259;-76
2023/04/12 04:31:09;;;;;;;3.70;3.10;;;4.40;99.90;;;-141.84;70.25;19313.91;5076618;28;20189;-74
2023/04/12 04:33:38;;;;;;;5.90;3.10;;;4.40;99.90;;;-141.84;69.78;19277.34;5074551;28;20230;-75
2023/04/12 04:36:08;;;;;;;3.50;2.90;;;4.50;99.90;;;-141.84;69.90;19291.56;5076607;28;20234;-76
2023/04/12 04:38:37;;;;;;;4.97;3.43;;;4.60;99.90;;;-141.84;69.50;19277.34;5074880;28;20233;-77
2023/04/12 04:41:06;;;;;;;4.90;3.27;;;4.60;99.90;;;-141.84;68.91;19261.06;5074659;28;20243;-74
2023/04/12 04:43:34;;;;;;;3.53;2.77;;;4.70;99.90;;;-141.84;68.53;19360.66;5074822;28;20283;-74
2023/04/12 04:46:04;;;;;;;3.30;2.77;;;4.80;99.90;;;-141.84;68.66;19313.91;5074875;28;20205;-75
2023/04/12 04:48:32;;;;;;;3.47;3.10;;;4.90;99.90;;;-141.84;68.40;19326.09;5074705;28;20285;-74
2023/04/12 04:51:01;;;;;;;4.27;3.57;;;5.00;99.90;;;-141.84;67.78;19352.53;5076931;28;20236;-77
2023/04/12 04:53:29;;;;;;;3.73;2.93;;;5.00;99.90;;;-141.84;67.57;19344.41;5074349;28;20238;-74
2023/04/12 04:55:59;;;;;;;3.50;3.07;;;5.10;99.90;;;-141.84;67.38;19350.50;5074237;28;20227;-76
2023/04/12 04:58:28;;;;;;;3.50;2.63;;;5.10;99.90;;;-141.84;67.66;19330.16;5072441;28;20204;-76
2023/04/12 05:00:58;;;;;;;3.40;2.90;;;5.20;99.90;;;-141.84;66.64;19374.88;5074604;28;20207;-78
2023/04/12 05:03:28;;;;;;;3.87;3.20;;;5.30;99.90;;;-141.84;66.81;19364.72;5074824;28;20281;-74
2023/04/12 05:05:58;;;;;;;6.53;3.60;;;5.30;99.90;;;-141.84;65.82;19374.88;5072594;28;20714;-76
2023/04/12 05:08:27;;;;;;;6.13;4.00;;;5.50;99.90;;;-141.84;65.48;19372.84;5071524;28;20238;-75
2023/04/12 05:10:56;;;;;;;4.73;3.10;;;5.50;99.90;;;-141.84;65.55;19366.75;5071694;28;20714;-76
2023/04/12 05:13:24;;;;;;;5.03;3.53;;;5.50;99.90;;;-141.84;65.69;19376.91;5072187;28;20211;-74
2023/04/12 05:15:53;;;;;;;3.93;3.37;;;5.50;99.90;;;-141.84;65.96;19350.50;5072104;28;20227;-76
2023/04/12 05:18:21;;;;;;;5.77;3.43;;;5.50;99.90;;;-141.84;65.65;19385.03;5071703;28;20247;-75
2023/04/12 05:20:50;;;;;;;4.47;2.83;;;5.50;99.90;;;-141.84;65.41;19419.59;5086466;28;20230;-77
2023/04/12 05:23:18;;;;;;;4.00;2.80;;;5.60;99.90;;;-141.84;65.82;19364.72;5087385;28;20225;-75
2023/04/12 05:25:48;;;;;;;4.67;3.60;;;5.60;99.90;;;-141.84;64.99;19387.06;5071643;28;20235;-78
2023/04/12 05:28:17;;;;;;;4.40;3.20;;;5.70;99.90;;;-141.84;64.93;19407.38;5070866;28;20588;-60
2023/04/12 05:30:46;;;;;;;4.87;3.10;;;5.70;99.90;;;-141.84;64.38;19409.41;5070520;28;20231;-61
2023/04/12 05:33:14;;;;;;;5.47;3.17;;;5.80;99.90;;;-141.84;64.82;19419.59;5070807;28;20225;-61
2023/04/12 05:35:42;;;;;;;3.50;3.20;;;5.90;99.90;;;-141.84;64.46;19415.50;5070628;28;20241;-61
2023/04/12 05:38:12;;;;;;;4.60;3.30;;;6.00;99.90;;;-141.84;65.13;19419.59;5070864;28;20311;-60
2023/04/12 05:40:42;;;;;;;4.30;3.10;;;6.00;99.90;;;-141.84;64.28;19458.19;5035570;28;20203;-61
2023/04/12 05:43:11;;;;;;;5.37;3.00;;;6.10;99.90;;;-141.84;63.53;19452.09;5071089;28;20355;-61
2023/04/12 05:45:40;;;;;;;4.37;3.10;;;6.20;99.90;;;-141.84;63.67;19474.44;5069766;28;20232;-61
2023/04/12 05:48:08;;;;;;;6.47;3.70;;;6.40;99.90;;;-141.84;64.27;19454.13;5070566;28;20228;-61
2023/04/12 05:50:36;;;;;;;5.77;3.50;;;6.40;99.90;;;-141.84;64.49;19466.31;5070260;28;20231;-61
2023/04/12 05:53:05;;;;;;;4.53;3.30;;;6.40;99.90;;;-141.84;63.89;19478.50;5070649;28;20227;-62
2023/04/12 05:55:34;;;;;;;5.43;3.20;;;6.50;99.90;;;-141.84;64.31;19441.94;5056954;28;20208;-59
2023/04/12 05:58:05;;;;;;;4.40;2.90;;;6.50;99.90;;;-141.84;63.84;19470.38;5054798;28;20286;-60
2023/04/12 06:00:33;;;;;;;3.80;2.67;;;6.60;99.90;;;-141.84;63.68;19456.16;5070315;28;20237;-61
2023/04/12 06:03:02;;;;;;;4.27;3.00;;;6.70;99.90;;;-141.84;63.33;19472.41;5019334;28;20654;-60
2023/04/12 06:05:31;;;;;;;4.33;2.70;;;6.80;99.90;;;-141.84;62.66;19504.94;5070700;28;20228;-60
2023/04/12 06:07:59;;;;;;;2.90;2.40;;;6.90;99.90;;;-141.84;63.14;19523.22;5070584;28;20231;-60
2023/04/12 06:10:28;;;;;;;4.00;2.53;;;7.00;99.90;;;-141.84;63.30;19525.25;5070131;28;20204;-60
2023/04/12 06:12:57;;;;;;;4.93;2.57;;;7.10;99.90;;;-141.84;62.35;19537.44;5066921;28;20212;-60
2023/04/12 06:15:25;;;;;;;5.33;2.70;;;7.20;99.90;;;-141.84;62.79;19533.38;5069731;28;20228;-59
2023/04/12 06:17:54;;;;;;;3.27;2.70;;;7.30;99.90;;;-141.84;61.97;19533.38;5070438;28;20286;-61
2023/04/12 06:20:22;;;;;;;5.33;2.50;;;7.40;99.90;;;-141.84;61.37;19590.28;5069878;28;20224;-59
2023/04/12 06:22:50;;;;;;;5.60;2.17;;;7.50;99.90;;;-141.84;61.07;19559.81;5070323;28;20254;-61
2023/04/12 06:25:19;;;;;;;4.40;2.40;;;7.60;99.90;;;-141.84;61.40;19553.72;5070148;28;20232;-61
2023/04/12 06:27:47;;;;;;;4.90;2.90;;;7.70;99.90;;;-141.84;61.52;19578.09;5068308;28;20227;-59
2023/04/12 06:30:19;;;;;;;3.37;2.27;;;7.70;99.90;;;-141.84;61.49;19608.56;5069545;28;20232;-61
2023/04/12 06:32:48;;;;;;;4.03;2.20;;;7.80;99.90;;;-141.84;60.92;19588.25;5070103;28;20230;-59
2023/04/12 06:35:16;;;;;;;4.33;2.20;;;7.90;99.90;;;-141.84;60.28;19624.84;5069826;28;20282;-60
2023/04/12 06:37:45;;;;;;;4.63;2.00;;;8.10;99.90;;;-141.84;59.81;19626.88;5070130;28;20449;-60
2023/04/12 06:40:13;;;;;;;3.00;1.80;;;8.20;99.90;;;-141.84;59.04;19620.78;5070019;28;20200;-61
2023/04/12 06:42:41;;;;;;;2.77;1.70;;;8.20;99.90;;;-141.84;59.32;19649.22;5069507;28;20236;-60
2023/04/12 06:45:10;;;;;;;2.93;1.73;;;8.20;99.90;;;-141.84;59.26;19616.72;5069486;28;20229;-61
2023/04/12 06:47:40;;;;;;;2.37;1.80;;;8.30;99.90;;;-141.84;58.82;19645.16;5049779;28;20240;-61
2023/04/12 06:50:09;;;;;;;3.37;1.90;;;8.30;99.90;;;-141.84;58.73;19681.75;5049323;28;20316;-60
2023/04/12 06:52:38;;;;;;;3.90;2.10;;;8.30;99.90;;;-141.84;59.24;19651.25;5069647;28;20205;-61
2023/04/12 06:55:07;;;;;;;5.37;2.07;;;8.30;99.90;;;-141.84;59.45;19639.06;5055354;28;20193;-61
2023/04/12 06:57:35;;;;;;;2.80;1.83;;;8.40;99.90;;;-141.84;59.13;19683.78;5053361;28;20576;-60
2023/04/12 07:00:05;;;;;;;3.53;1.90;;;8.40;99.90;;;-141.84;59.10;19671.56;5053340;28;20240;-61
2023/04/12 07:02:33;;;;;;;3.00;1.97;;;8.50;99.90;;;-141.84;58.56;19695.97;5053365;28;20734;-61
2023/04/12 07:05:03;;;;;;;3.93;1.90;;;8.40;99.90;;;-141.84;59.35;19659.38;5053839;28;20781;-60
2023/04/12 07:07:32;;;;;;;2.70;2.00;;;8.40;99.90;;;-141.84;59.71;19673.59;5073551;28;20201;-60
2023/04/12 07:10:02;;;;;;;3.50;1.97;;;8.50;99.90;;;-141.84;59.45;19681.75;5073776;28;20745;-62
2023/04/12 07:12:30;;;;;;;5.60;1.93;;;8.60;99.90;;;-141.84;59.68;19683.78;5080814;28;20230;-61
2023/04/12 07:14:59;;;;;;;2.47;1.90;;;8.60;99.90;;;-141.84;58.96;19681.75;5093565;28;20223;-58
2023/04/12 07:17:27;;;;;;;3.23;2.00;;;8.70;99.90;;;-141.84;58.60;19679.72;5075266;28;20742;-61
2023/04/12 07:19:56;;;;;;;6.87;2.17;;;8.80;99.90;;;-141.84;58.82;19710.19;5073080;28;20236;-61
2023/04/12 07:22:25;;;;;;;2.30;1.90;;;8.80;99.90;;;-141.84;58.54;19702.06;5073766;28;20205;-59
2023/04/12 07:24:54;;;;;;;3.17;2.03;;;8.90;99.90;;;-141.84;58.41;19685.81;5073307;28;20240;-60
2023/04/12 07:27:22;;;;;;;4.87;1.80;;;9.00;99.90;;;-141.84;58.30;19708.16;5071490;28;20228;-60
2023/04/12 07:29:52;;;;;;;4.93;2.10;;;9.00;99.90;;;-141.84;57.88;19732.53;5072664;28;20241;-60
2023/04/12 07:32:20;;;;;;;4.00;2.17;;;9.10;99.90;;;-141.84;58.07;19734.56;5072741;28;20252;-60
2023/04/12 07:34:48;;;;;;;2.43;2.23;;;9.10;99.90;;;-141.84;58.87;19726.44;5072274;28;20699;-60
2023/04/12 07:37:18;;;;;;;3.37;2.00;;;9.20;99.90;;;-141.84;58.84;19754.91;5073299;28;20224;-59
2023/04/12 07:39:47;;;;;;;4.43;2.13;;;9.30;99.90;;;-141.84;58.25;19761.00;5072705;28;20613;-60
2023/04/12 07:42:16;;;;;;;4.37;2.10;;;9.40;99.90;;;-141.84;57.74;19813.84;5072305;28;20641;-59
2023/04/12 07:44:44;;;;;;;3.57;2.17;;;9.50;99.90;;;-141.84;57.91;19791.47;5072774;28;20228;-58
2023/04/12 07:47:12;;;;;;;3.97;2.20;;;9.60;99.90;;;-141.84;57.90;19775.22;5072550;28;20837;-60
2023/04/12 07:49:40;;;;;;;3.53;2.07;;;9.60;99.90;;;-141.84;57.52;19815.88;5072519;28;20696;-60
2023/04/12 07:52:09;;;;;;;4.53;2.03;;;9.70;99.90;;;-141.84;57.59;19821.97;5073031;28;20204;-60
2023/04/12 07:54:38;;;;;;;3.83;1.77;;;9.80;99.90;;;-141.84;57.15;19832.13;5061282;28;20222;-59
2023/04/12 07:57:08;;;;;;;3.87;1.97;;;9.90;99.90;;;-141.84;57.16;19856.53;5052395;28;20236;-60
2023/04/12 07:59:36;;;;;;;2.93;2.00;;;10.00;99.90;;;-141.84;56.93;19809.78;5068735;28;20235;-60
2023/04/12 08:02:05;;;;;;;3.30;1.87;;;10.10;99.90;;;-141.84;56.76;19887.00;5065132;28;20232;-60
2023/04/12 08:04:34;;;;;;;3.73;1.97;;;10.20;99.90;;;-141.84;55.68;19905.28;5052169;28;20198;-59
2023/04/12 08:07:02;;;;;;;3.17;1.90;;;10.30;99.90;;;-141.84;55.65;19893.09;5062558;28;20586;-59
2023/04/12 08:09:30;;;;;;;3.20;2.13;;;10.50;99.90;;;-141.84;55.90;19923.59;5086153;28;20220;-60
2023/04/12 08:11:58;;;;;;;4.60;2.00;;;10.60;99.90;;;-141.84;54.82;19935.78;5088470;28;20225;-59
2023/04/12 08:14:28;;;;;;;3.73;1.90;;;10.70;99.90;;;-141.84;55.09;19935.78;5071963;28;20232;-61
2023/04/12 08:16:56;;;;;;;3.57;2.13;;;10.80;99.90;;;-141.84;54.24;19972.38;5072092;28;20600;-61
2023/04/12 08:19:25;;;;;;;4.03;2.23;;;10.90;99.90;;;-141.84;54.36;19974.41;5072876;28;20200;-59
2023/04/12 08:21:53;;;;;;;4.10;2.00;;;11.10;99.90;;;-141.84;53.86;20002.84;5072105;28;20228;-59
2023/04/12 08:24:22;;;;;;;2.03;1.73;;;11.20;99.90;;;-141.84;53.39;20004.88;5071765;28;20358;-60
2023/04/12 08:26:51;;;;;;;2.03;1.83;;;11.30;99.90;;;-141.84;53.70;20010.97;5071971;28;20230;-60
2023/04/12 08:29:19;;;;;;;3.67;2.07;;;11.30;99.90;;;-141.84;53.47;20023.19;5071640;28;20220;-61
2023/04/12 08:31:49;;;;;;;2.33;1.70;;;11.40;99.90;;;-141.84;53.64;20013.00;5071925;28;20236;-59
2023/04/12 08:34:17;;;;;;;3.47;2.00;;;11.50;99.90;;;-141.84;53.60;20025.22;5072769;28;20258;-60
2023/04/12 08:36:46;;;;;;;3.00;1.80;;;11.50;99.90;;;-141.84;52.62;20102.44;4987732;28;20609;-60
2023/04/12 08:39:14;;;;;;;4.53;1.93;;;11.70;99.90;;;-141.84;52.29;20106.50;5071788;28;20315;-60
2023/04/12 08:41:43;;;;;;;3.13;1.83;;;11.80;99.90;;;-141.84;50.93;20167.47;5071657;28;20232;-62
2023/04/12 08:44:12;;;;;;;3.93;1.50;;;12.00;99.90;;;-141.84;50.72;20175.63;5071181;28;20233;-60
2023/04/12 08:46:41;;;;;;;4.67;2.13;;;12.10;99.90;;;-141.84;50.80;20153.25;5071694;28;20204;-60
2023/04/12 08:49:11;;;;;;;3.70;1.60;;;12.30;99.90;;;-141.84;51.26;20139.03;5072167;28;20622;-59
2023/04/12 08:51:42;;;;;;;6.85;1.90;;;12.20;99.90;;;-141.84;50.50;20173.59;5071682;28;20224;-60
2023/04/12 08:54:10;;;;;;;4.33;2.10;;;12.40;99.90;;;-141.84;50.64;20185.78;5063842;28;20225;-60
2023/04/12 08:56:42;;;;;;;3.83;2.10;;;12.40;99.90;;;-141.84;50.74;20200.00;5051744;28;20233;-61
2023/04/12 08:59:12;;;;;;;7.93;2.20;;;12.60;99.90;;;-141.84;51.26;20173.59;5064803;28;20221;-62
2023/04/12 09:01:42;;;;;;;4.87;2.03;;;12.50;99.90;;;-141.84;50.96;20193.91;5071055;28;20589;-60
2023/04/12 09:04:11;;;;;;;5.87;2.23;;;12.50;99.90;;;-141.84;50.50;20218.31;5071703;28;20200;-60
2023/04/12 09:06:40;;;;;;;3.83;1.80;;;12.60;99.90;;;-141.84;50.14;20289.44;5071225;28;20221;-63
2023/04/12 09:09:09;;;;;;;3.50;1.97;;;12.70;99.90;;;-141.84;49.86;20324.00;5072122;28;20224;-74
2023/04/12 09:11:37;;;;;;;5.03;1.77;;;13.00;99.90;;;-141.84;49.64;20313.84;5071419;28;20228;-75
2023/04/12 09:14:22;;;;;;;4.00;2.22;;;13.20;99.90;;;-141.84;47.70;20441.88;5071119;28;20224;-75
2023/04/12 09:16:51;;;;;;;3.03;1.63;;;13.40;99.90;;;-141.84;47.07;20419.53;5071221;28;20244;-74
2023/04/12 09:19:33;;;;;;;5.93;1.75;;;13.60;99.90;;;-141.84;47.10;20364.66;5070780;28;20643;-77
2023/04/12 09:22:02;;;;;;;5.30;2.03;;;13.60;99.90;;;-141.84;47.70;20338.22;5020245;28;20217;-78
2023/04/12 09:24:46;;;;;;;4.32;1.60;;;13.50;99.90;;;-141.84;46.92;20348.38;5071186;28;20236;-78
2023/04/12 09:27:14;;;;;;;5.33;2.07;;;13.50;99.90;;;-141.84;47.12;20387.00;5071049;28;20228;-76
2023/04/12 09:29:44;;;;;;;4.43;1.70;;;13.50;99.90;;;-141.84;46.98;20364.66;5072783;28;20224;-77
2023/04/12 09:32:12;;;;;;;5.27;1.80;;;13.40;99.90;;;-141.84;47.72;20334.16;5072294;28;20319;-75
2023/04/12 09:34:56;;;;;;;4.07;1.80;;;13.40;99.90;;;-141.84;47.10;20338.22;5073250;28;20197;-76
2023/04/12 09:37:25;;;;;;;5.10;1.77;;;13.40;99.90;;;-141.84;47.45;20317.91;5074375;28;20212;-78
2023/04/12 09:40:01;;;;;;;5.07;2.00;;;13.30;99.90;;;-141.84;47.81;20309.75;5073034;28;20226;-75
2023/04/12 09:42:29;;;;;;;3.83;1.60;;;13.20;99.90;;;-141.84;48.31;20324.00;5072971;28;20311;-78
2023/04/12 09:45:24;;;;;;;3.60;1.70;;;13.20;99.90;;;-141.84;48.22;20340.25;5071714;28;20712;-74
2023/04/12 09:47:57;;;;;;;3.83;1.80;;;13.20;99.90;;;-141.84;47.86;20313.84;5071258;28;20236;-73
2023/04/12 09:50:29;;;;;;;7.43;1.77;;;13.20;99.90;;;-141.84;47.71;20328.06;5071960;28;20655;-76
2023/04/12 09:52:58;;;;;;;6.13;2.30;;;13.20;99.90;;;-141.84;47.60;20319.94;5072700;28;20223;-74
2023/04/12 09:55:29;;;;;;;3.00;1.80;;;13.30;99.90;;;-141.84;46.67;20346.34;5054279;28;20227;-78
2023/04/12 09:58:02;;;;;;;3.03;1.60;;;13.50;99.90;;;-141.84;45.83;20387.00;5053908;28;20215;-72
2023/04/12 10:00:34;;;;;;;3.70;1.83;;;13.70;99.90;;;-141.84;46.03;20401.22;5061550;28;20224;-72
2023/04/12 10:03:08;;;;;;;4.90;2.10;;;13.70;99.90;;;-141.84;45.97;20433.75;5090866;28;20224;-72
2023/04/12 10:05:41;;;;;;;5.93;1.65;;;13.90;99.90;;;-141.84;45.09;20466.28;5077382;28;20228;-71
2023/04/12 10:08:14;;;;;;;3.15;1.58;;;14.00;99.90;;;-141.84;44.38;20441.88;5050595;28;20251;-72
2023/04/12 10:10:47;;;;;;;4.60;1.50;;;14.10;99.90;;;-141.84;44.74;20484.56;5040092;28;20566;-75
2023/04/12 10:13:34;;;;;;;5.80;1.52;;;14.10;99.90;;;-141.84;44.50;20452.06;5049459;28;20220;-73
2023/04/12 10:16:07;;;;;;;5.32;1.45;;;14.10;99.90;;;-141.84;43.45;20445.94;5021240;28;20638;-72
2023/04/12 10:18:36;;;;;;;4.40;1.50;;;14.10;99.90;;;-141.84;43.45;20517.09;5050228;28;20229;-74
2023/04/12 10:21:08;;;;;;;7.00;1.83;;;14.20;99.90;;;-141.84;42.97;20502.88;5064932;28;20258;-75